sensor_id;sensor_type;location;lat;lon;timestamp;P1;durP1;ratioP1;P2;durP2;ratioP2
14876;SDS011;69691;48.172;17.070;2024-01-27T00:01:59;4.65;;;1.75;;
14876;SDS011;69691;48.172;17.070;2024-01-27T00:04:25;4.38;;;2.10;;
14876;SDS011;69691;48.172;17.070;2024-01-27T00:06:50;5.28;;;1.90;;
14876;SDS011;69691;48.172;17.070;2024-01-27T00:09:16;2.55;;;1.88;;
14876;SDS011;69691;48.172;17.070;2024-01-27T00:11:42;3.50;;;2.10;;
14876;SDS011;69691;48.172;17.070;2024-01-27T00:14:08;2.80;;;2.10;;
14876;SDS011;69691;48.172;17.070;2024-01-27T00:16:34;7.00;;;2.30;;
14876;SDS011;69691;48.172;17.070;2024-01-27T00:18:59;5.10;;;2.10;;
14876;SDS011;69691;48.172;17.070;2024-01-27T00:21:25;4.53;;;2.08;;
14876;SDS011;69691;48.172;17.070;2024-01-27T00:23:51;5.15;;;2.22;;
14876;SDS011;69691;48.172;17.070;2024-01-27T00:26:17;2.45;;;1.98;;
14876;SDS011;69691;48.172;17.070;2024-01-27T00:28:42;3.65;;;2.20;;
14876;SDS011;69691;48.172;17.070;2024-01-27T00:31:08;5.10;;;2.35;;
14876;SDS011;69691;48.172;17.070;2024-01-27T00:33:34;4.28;;;1.75;;
14876;SDS011;69691;48.172;17.070;2024-01-27T00:36:01;4.25;;;2.33;;
14876;SDS011;69691;48.172;17.070;2024-01-27T00:38:27;6.53;;;2.20;;
14876;SDS011;69691;48.172;17.070;2024-01-27T00:40:53;4.50;;;2.03;;
14876;SDS011;69691;48.172;17.070;2024-01-27T00:43:19;3.85;;;1.75;;
14876;SDS011;69691;48.172;17.070;2024-01-27T00:45:45;2.88;;;1.85;;
14876;SDS011;69691;48.172;17.070;2024-01-27T00:48:10;2.97;;;1.70;;
14876;SDS011;69691;48.172;17.070;2024-01-27T00:50:36;4.05;;;2.00;;
14876;SDS011;69691;48.172;17.070;2024-01-27T00:53:02;2.55;;;1.67;;
14876;SDS011;69691;48.172;17.070;2024-01-27T00:55:28;6.68;;;1.50;;
14876;SDS011;69691;48.172;17.070;2024-01-27T00:57:54;5.75;;;2.35;;
14876;SDS011;69691;48.172;17.070;2024-01-27T01:00:20;2.35;;;1.83;;
14876;SDS011;69691;48.172;17.070;2024-01-27T01:02:46;4.47;;;1.77;;
14876;SDS011;69691;48.172;17.070;2024-01-27T01:05:12;7.03;;;2.22;;
14876;SDS011;69691;48.172;17.070;2024-01-27T01:07:39;4.20;;;2.00;;
14876;SDS011;69691;48.172;17.070;2024-01-27T01:10:05;3.10;;;1.88;;
14876;SDS011;69691;48.172;17.070;2024-01-27T01:12:31;3.08;;;2.03;;
14876;SDS011;69691;48.172;17.070;2024-01-27T01:14:57;6.32;;;2.45;;
14876;SDS011;69691;48.172;17.070;2024-01-27T01:17:23;3.17;;;2.10;;
14876;SDS011;69691;48.172;17.070;2024-01-27T01:19:49;5.85;;;1.85;;
14876;SDS011;69691;48.172;17.070;2024-01-27T01:22:15;3.28;;;1.80;;
14876;SDS011;69691;48.172;17.070;2024-01-27T01:24:41;3.22;;;2.20;;
14876;SDS011;69691;48.172;17.070;2024-01-27T01:27:07;4.75;;;2.10;;
14876;SDS011;69691;48.172;17.070;2024-01-27T01:29:33;2.00;;;1.80;;
14876;SDS011;69691;48.172;17.070;2024-01-27T01:32:00;3.05;;;1.80;;
14876;SDS011;69691;48.172;17.070;2024-01-27T01:34:29;4.72;;;1.75;;
14876;SDS011;69691;48.172;17.070;2024-01-27T01:36:55;5.93;;;1.90;;
14876;SDS011;69691;48.172;17.070;2024-01-27T01:39:22;2.90;;;2.08;;
14876;SDS011;69691;48.172;17.070;2024-01-27T01:41:48;6.15;;;2.50;;
14876;SDS011;69691;48.172;17.070;2024-01-27T01:44:14;3.28;;;2.00;;
14876;SDS011;69691;48.172;17.070;2024-01-27T01:46:40;3.33;;;2.17;;
14876;SDS011;69691;48.172;17.070;2024-01-27T01:49:06;2.97;;;2.20;;
14876;SDS011;69691;48.172;17.070;2024-01-27T01:51:32;2.20;;;1.88;;
14876;SDS011;69691;48.172;17.070;2024-01-27T01:53:58;5.30;;;1.98;;
14876;SDS011;69691;48.172;17.070;2024-01-27T01:56:25;3.45;;;1.75;;
14876;SDS011;69691;48.172;17.070;2024-01-27T01:58:51;2.50;;;2.00;;
14876;SDS011;69691;48.172;17.070;2024-01-27T02:01:19;2.58;;;2.10;;
14876;SDS011;69691;48.172;17.070;2024-01-27T02:03:56;1.88;;;1.73;;
14876;SDS011;69691;48.172;17.070;2024-01-27T02:06:22;2.80;;;2.13;;
14876;SDS011;69691;48.172;17.070;2024-01-27T02:08:49;4.32;;;2.35;;
14876;SDS011;69691;48.172;17.070;2024-01-27T02:11:15;3.35;;;1.80;;
14876;SDS011;69691;48.172;17.070;2024-01-27T02:13:42;2.10;;;1.90;;
14876;SDS011;69691;48.172;17.070;2024-01-27T02:16:08;2.17;;;1.90;;
14876;SDS011;69691;48.172;17.070;2024-01-27T02:18:34;3.67;;;1.85;;
14876;SDS011;69691;48.172;17.070;2024-01-27T02:21:00;3.45;;;2.10;;
14876;SDS011;69691;48.172;17.070;2024-01-27T02:23:26;4.65;;;1.98;;
14876;SDS011;69691;48.172;17.070;2024-01-27T02:25:52;3.47;;;1.90;;
14876;SDS011;69691;48.172;17.070;2024-01-27T02:28:18;3.55;;;1.70;;
14876;SDS011;69691;48.172;17.070;2024-01-27T02:30:43;3.25;;;1.80;;
14876;SDS011;69691;48.172;17.070;2024-01-27T02:33:09;5.10;;;1.83;;
14876;SDS011;69691;48.172;17.070;2024-01-27T02:35:35;2.00;;;1.85;;
14876;SDS011;69691;48.172;17.070;2024-01-27T02:38:01;4.53;;;1.98;;
14876;SDS011;69691;48.172;17.070;2024-01-27T02:40:28;6.38;;;1.83;;
14876;SDS011;69691;48.172;17.070;2024-01-27T02:42:53;4.55;;;2.00;;
14876;SDS011;69691;48.172;17.070;2024-01-27T02:45:19;7.43;;;2.55;;
14876;SDS011;69691;48.172;17.070;2024-01-27T02:47:45;2.05;;;1.85;;
14876;SDS011;69691;48.172;17.070;2024-01-27T02:50:11;4.45;;;1.88;;
14876;SDS011;69691;48.172;17.070;2024-01-27T02:52:37;3.22;;;1.95;;
14876;SDS011;69691;48.172;17.070;2024-01-27T02:55:03;4.75;;;2.70;;
14876;SDS011;69691;48.172;17.070;2024-01-27T02:57:29;3.83;;;1.80;;
14876;SDS011;69691;48.172;17.070;2024-01-27T02:59:55;3.38;;;1.98;;
14876;SDS011;69691;48.172;17.070;2024-01-27T03:02:21;5.60;;;2.03;;
14876;SDS011;69691;48.172;17.070;2024-01-27T03:04:47;4.88;;;1.90;;
14876;SDS011;69691;48.172;17.070;2024-01-27T03:07:13;5.18;;;2.40;;
14876;SDS011;69691;48.172;17.070;2024-01-27T03:09:38;2.55;;;1.90;;
14876;SDS011;69691;48.172;17.070;2024-01-27T03:12:04;2.90;;;1.80;;
14876;SDS011;69691;48.172;17.070;2024-01-27T03:14:30;2.42;;;1.92;;
14876;SDS011;69691;48.172;17.070;2024-01-27T03:16:56;2.80;;;1.77;;
14876;SDS011;69691;48.172;17.070;2024-01-27T03:19:23;3.65;;;1.70;;
14876;SDS011;69691;48.172;17.070;2024-01-27T03:21:49;4.72;;;1.80;;
14876;SDS011;69691;48.172;17.070;2024-01-27T03:24:15;4.50;;;2.13;;
14876;SDS011;69691;48.172;17.070;2024-01-27T03:26:41;3.63;;;1.88;;
14876;SDS011;69691;48.172;17.070;2024-01-27T03:29:07;3.95;;;1.73;;
14876;SDS011;69691;48.172;17.070;2024-01-27T03:31:32;2.30;;;1.80;;
14876;SDS011;69691;48.172;17.070;2024-01-27T03:33:59;9.75;;;2.20;;
14876;SDS011;69691;48.172;17.070;2024-01-27T03:36:26;8.30;;;2.58;;
14876;SDS011;69691;48.172;17.070;2024-01-27T03:38:52;3.38;;;1.80;;
14876;SDS011;69691;48.172;17.070;2024-01-27T03:41:19;2.17;;;1.70;;
14876;SDS011;69691;48.172;17.070;2024-01-27T03:43:45;2.80;;;2.00;;
14876;SDS011;69691;48.172;17.070;2024-01-27T03:46:11;2.90;;;1.85;;
14876;SDS011;69691;48.172;17.070;2024-01-27T03:48:37;3.40;;;1.75;;
14876;SDS011;69691;48.172;17.070;2024-01-27T03:51:03;2.72;;;1.90;;
14876;SDS011;69691;48.172;17.070;2024-01-27T03:53:29;3.67;;;1.88;;
14876;SDS011;69691;48.172;17.070;2024-01-27T03:55:55;5.53;;;1.98;;
14876;SDS011;69691;48.172;17.070;2024-01-27T03:58:23;4.03;;;1.98;;
14876;SDS011;69691;48.172;17.070;2024-01-27T04:00:49;4.45;;;1.77;;
14876;SDS011;69691;48.172;17.070;2024-01-27T04:03:16;11.00;;;3.22;;
14876;SDS011;69691;48.172;17.070;2024-01-27T04:05:42;4.50;;;1.92;;
14876;SDS011;69691;48.172;17.070;2024-01-27T04:08:08;5.80;;;1.95;;
14876;SDS011;69691;48.172;17.070;2024-01-27T04:10:35;6.78;;;2.15;;
14876;SDS011;69691;48.172;17.070;2024-01-27T04:13:02;3.58;;;1.90;;
14876;SDS011;69691;48.172;17.070;2024-01-27T04:15:28;4.60;;;2.63;;
14876;SDS011;69691;48.172;17.070;2024-01-27T04:17:54;2.40;;;1.75;;
14876;SDS011;69691;48.172;17.070;2024-01-27T04:20:20;5.28;;;3.15;;
14876;SDS011;69691;48.172;17.070;2024-01-27T04:22:46;5.53;;;2.78;;
14876;SDS011;69691;48.172;17.070;2024-01-27T04:25:12;2.42;;;2.00;;
14876;SDS011;69691;48.172;17.070;2024-01-27T04:27:38;4.07;;;2.10;;
14876;SDS011;69691;48.172;17.070;2024-01-27T04:30:07;5.15;;;2.10;;
14876;SDS011;69691;48.172;17.070;2024-01-27T04:32:35;4.22;;;2.20;;
14876;SDS011;69691;48.172;17.070;2024-01-27T04:35:01;4.05;;;2.13;;
14876;SDS011;69691;48.172;17.070;2024-01-27T04:37:28;3.50;;;2.00;;
14876;SDS011;69691;48.172;17.070;2024-01-27T04:39:54;5.63;;;1.70;;
14876;SDS011;69691;48.172;17.070;2024-01-27T04:42:19;6.65;;;2.25;;
14876;SDS011;69691;48.172;17.070;2024-01-27T04:44:46;7.25;;;2.20;;
14876;SDS011;69691;48.172;17.070;2024-01-27T04:47:11;4.00;;;2.10;;
14876;SDS011;69691;48.172;17.070;2024-01-27T04:49:37;4.15;;;1.80;;
14876;SDS011;69691;48.172;17.070;2024-01-27T04:52:03;2.65;;;1.75;;
14876;SDS011;69691;48.172;17.070;2024-01-27T04:54:29;5.60;;;2.67;;
14876;SDS011;69691;48.172;17.070;2024-01-27T04:56:55;2.20;;;2.00;;
14876;SDS011;69691;48.172;17.070;2024-01-27T04:59:21;2.72;;;1.80;;
14876;SDS011;69691;48.172;17.070;2024-01-27T05:01:47;1.80;;;1.70;;
14876;SDS011;69691;48.172;17.070;2024-01-27T05:04:13;3.13;;;1.77;;
14876;SDS011;69691;48.172;17.070;2024-01-27T05:06:43;3.75;;;1.92;;
14876;SDS011;69691;48.172;17.070;2024-01-27T05:09:10;2.20;;;1.80;;
14876;SDS011;69691;48.172;17.070;2024-01-27T05:11:37;4.93;;;1.70;;
14876;SDS011;69691;48.172;17.070;2024-01-27T05:14:03;2.60;;;2.10;;
14876;SDS011;69691;48.172;17.070;2024-01-27T05:16:29;4.35;;;1.98;;
14876;SDS011;69691;48.172;17.070;2024-01-27T05:18:55;2.70;;;1.90;;
14876;SDS011;69691;48.172;17.070;2024-01-27T05:21:21;2.65;;;1.83;;
14876;SDS011;69691;48.172;17.070;2024-01-27T05:23:47;6.38;;;2.10;;
14876;SDS011;69691;48.172;17.070;2024-01-27T05:26:13;4.78;;;2.22;;
14876;SDS011;69691;48.172;17.070;2024-01-27T05:28:39;2.10;;;1.67;;
14876;SDS011;69691;48.172;17.070;2024-01-27T05:31:08;4.38;;;2.03;;
14876;SDS011;69691;48.172;17.070;2024-01-27T05:33:35;3.47;;;2.00;;
14876;SDS011;69691;48.172;17.070;2024-01-27T05:36:01;3.92;;;1.92;;
14876;SDS011;69691;48.172;17.070;2024-01-27T05:38:27;3.47;;;1.90;;
14876;SDS011;69691;48.172;17.070;2024-01-27T05:40:55;4.88;;;2.05;;
14876;SDS011;69691;48.172;17.070;2024-01-27T05:43:21;7.78;;;2.55;;
14876;SDS011;69691;48.172;17.070;2024-01-27T05:45:47;5.30;;;1.98;;
14876;SDS011;69691;48.172;17.070;2024-01-27T05:48:14;5.55;;;2.08;;
14876;SDS011;69691;48.172;17.070;2024-01-27T05:50:41;5.63;;;2.42;;
14876;SDS011;69691;48.172;17.070;2024-01-27T05:53:08;9.27;;;2.40;;
14876;SDS011;69691;48.172;17.070;2024-01-27T05:55:33;5.65;;;2.55;;
14876;SDS011;69691;48.172;17.070;2024-01-27T05:57:59;4.13;;;2.10;;
14876;SDS011;69691;48.172;17.070;2024-01-27T06:00:25;2.25;;;2.10;;
14876;SDS011;69691;48.172;17.070;2024-01-27T06:02:51;2.85;;;2.00;;
14876;SDS011;69691;48.172;17.070;2024-01-27T06:05:17;4.97;;;1.80;;
14876;SDS011;69691;48.172;17.070;2024-01-27T06:07:42;2.22;;;1.95;;
14876;SDS011;69691;48.172;17.070;2024-01-27T06:10:10;2.50;;;2.28;;
14876;SDS011;69691;48.172;17.070;2024-01-27T06:12:37;3.45;;;2.35;;
14876;SDS011;69691;48.172;17.070;2024-01-27T06:15:04;4.35;;;2.22;;
14876;SDS011;69691;48.172;17.070;2024-01-27T06:17:31;7.53;;;1.88;;
14876;SDS011;69691;48.172;17.070;2024-01-27T06:19:57;10.98;;;2.30;;
14876;SDS011;69691;48.172;17.070;2024-01-27T06:22:22;5.25;;;2.22;;
14876;SDS011;69691;48.172;17.070;2024-01-27T06:24:48;4.07;;;2.40;;
14876;SDS011;69691;48.172;17.070;2024-01-27T06:27:14;3.95;;;2.08;;
14876;SDS011;69691;48.172;17.070;2024-01-27T06:29:40;4.13;;;2.20;;
14876;SDS011;69691;48.172;17.070;2024-01-27T06:32:07;6.40;;;2.05;;
14876;SDS011;69691;48.172;17.070;2024-01-27T06:34:33;2.25;;;2.05;;
14876;SDS011;69691;48.172;17.070;2024-01-27T06:36:58;4.78;;;1.83;;
14876;SDS011;69691;48.172;17.070;2024-01-27T06:39:24;7.38;;;2.50;;
14876;SDS011;69691;48.172;17.070;2024-01-27T06:41:51;6.50;;;2.50;;
14876;SDS011;69691;48.172;17.070;2024-01-27T06:44:16;3.58;;;2.78;;
14876;SDS011;69691;48.172;17.070;2024-01-27T06:46:42;5.85;;;2.40;;
14876;SDS011;69691;48.172;17.070;2024-01-27T06:49:10;5.45;;;2.30;;
14876;SDS011;69691;48.172;17.070;2024-01-27T06:51:35;3.40;;;2.03;;
14876;SDS011;69691;48.172;17.070;2024-01-27T06:54:01;4.68;;;2.05;;
14876;SDS011;69691;48.172;17.070;2024-01-27T06:56:27;8.35;;;2.67;;
14876;SDS011;69691;48.172;17.070;2024-01-27T06:58:53;3.08;;;1.90;;
14876;SDS011;69691;48.172;17.070;2024-01-27T07:01:19;10.65;;;2.38;;
14876;SDS011;69691;48.172;17.070;2024-01-27T07:03:44;5.40;;;1.98;;
14876;SDS011;69691;48.172;17.070;2024-01-27T07:06:10;8.43;;;1.92;;
14876;SDS011;69691;48.172;17.070;2024-01-27T07:08:36;3.08;;;1.90;;
14876;SDS011;69691;48.172;17.070;2024-01-27T07:11:02;7.93;;;2.40;;
14876;SDS011;69691;48.172;17.070;2024-01-27T07:13:28;6.18;;;2.42;;
14876;SDS011;69691;48.172;17.070;2024-01-27T07:15:58;5.40;;;2.20;;
14876;SDS011;69691;48.172;17.070;2024-01-27T07:18:24;8.15;;;2.28;;
14876;SDS011;69691;48.172;17.070;2024-01-27T07:20:51;5.13;;;2.35;;
14876;SDS011;69691;48.172;17.070;2024-01-27T07:23:17;4.40;;;2.05;;
14876;SDS011;69691;48.172;17.070;2024-01-27T07:25:43;3.70;;;2.10;;
14876;SDS011;69691;48.172;17.070;2024-01-27T07:28:09;3.95;;;2.03;;
14876;SDS011;69691;48.172;17.070;2024-01-27T07:30:35;4.30;;;2.13;;
14876;SDS011;69691;48.172;17.070;2024-01-27T07:33:02;10.52;;;2.97;;
14876;SDS011;69691;48.172;17.070;2024-01-27T07:35:28;6.53;;;2.20;;
14876;SDS011;69691;48.172;17.070;2024-01-27T07:37:53;7.50;;;2.72;;
14876;SDS011;69691;48.172;17.070;2024-01-27T07:40:19;5.40;;;2.30;;
14876;SDS011;69691;48.172;17.070;2024-01-27T07:42:45;4.55;;;2.70;;
14876;SDS011;69691;48.172;17.070;2024-01-27T07:45:11;9.80;;;2.63;;
14876;SDS011;69691;48.172;17.070;2024-01-27T07:47:37;4.85;;;2.47;;
14876;SDS011;69691;48.172;17.070;2024-01-27T07:50:03;4.45;;;2.72;;
14876;SDS011;69691;48.172;17.070;2024-01-27T07:52:29;6.90;;;3.42;;
14876;SDS011;69691;48.172;17.070;2024-01-27T07:54:55;6.70;;;2.95;;
14876;SDS011;69691;48.172;17.070;2024-01-27T07:57:21;4.43;;;2.58;;
14876;SDS011;69691;48.172;17.070;2024-01-27T07:59:47;8.02;;;3.13;;
14876;SDS011;69691;48.172;17.070;2024-01-27T08:02:13;7.30;;;2.80;;
14876;SDS011;69691;48.172;17.070;2024-01-27T08:04:39;7.20;;;3.28;;
14876;SDS011;69691;48.172;17.070;2024-01-27T08:07:04;7.78;;;2.92;;
14876;SDS011;69691;48.172;17.070;2024-01-27T08:09:34;5.72;;;2.88;;
14876;SDS011;69691;48.172;17.070;2024-01-27T08:12:01;7.70;;;2.80;;
14876;SDS011;69691;48.172;17.070;2024-01-27T08:14:28;4.47;;;2.72;;
14876;SDS011;69691;48.172;17.070;2024-01-27T08:16:58;18.08;;;3.70;;
14876;SDS011;69691;48.172;17.070;2024-01-27T08:19:24;6.05;;;2.78;;
14876;SDS011;69691;48.172;17.070;2024-01-27T08:21:50;8.23;;;2.58;;
14876;SDS011;69691;48.172;17.070;2024-01-27T08:24:16;8.63;;;2.97;;
14876;SDS011;69691;48.172;17.070;2024-01-27T08:26:42;7.25;;;2.95;;
14876;SDS011;69691;48.172;17.070;2024-01-27T08:29:11;9.45;;;2.72;;
14876;SDS011;69691;48.172;17.070;2024-01-27T08:31:37;6.57;;;2.95;;
14876;SDS011;69691;48.172;17.070;2024-01-27T08:34:03;7.80;;;2.95;;
14876;SDS011;69691;48.172;17.070;2024-01-27T08:36:29;9.55;;;3.15;;
14876;SDS011;69691;48.172;17.070;2024-01-27T08:38:55;9.02;;;2.38;;
14876;SDS011;69691;48.172;17.070;2024-01-27T08:41:22;8.15;;;2.60;;
14876;SDS011;69691;48.172;17.070;2024-01-27T08:43:48;7.88;;;2.95;;
14876;SDS011;69691;48.172;17.070;2024-01-27T08:46:13;6.10;;;2.97;;
14876;SDS011;69691;48.172;17.070;2024-01-27T08:48:40;6.20;;;2.60;;
14876;SDS011;69691;48.172;17.070;2024-01-27T08:51:09;5.00;;;2.90;;
14876;SDS011;69691;48.172;17.070;2024-01-27T08:53:37;6.07;;;2.97;;
14876;SDS011;69691;48.172;17.070;2024-01-27T08:56:02;3.78;;;2.60;;
14876;SDS011;69691;48.172;17.070;2024-01-27T08:58:30;9.57;;;3.13;;
14876;SDS011;69691;48.172;17.070;2024-01-27T09:00:56;9.77;;;3.47;;
14876;SDS011;69691;48.172;17.070;2024-01-27T09:03:22;7.47;;;3.15;;
14876;SDS011;69691;48.172;17.070;2024-01-27T09:05:48;9.73;;;3.55;;
14876;SDS011;69691;48.172;17.070;2024-01-27T09:08:15;9.77;;;3.50;;
14876;SDS011;69691;48.172;17.070;2024-01-27T09:10:42;5.00;;;2.78;;
14876;SDS011;69691;48.172;17.070;2024-01-27T09:13:07;11.40;;;3.20;;
14876;SDS011;69691;48.172;17.070;2024-01-27T09:15:33;7.45;;;2.88;;
14876;SDS011;69691;48.172;17.070;2024-01-27T09:17:59;7.60;;;3.38;;
14876;SDS011;69691;48.172;17.070;2024-01-27T09:20:25;5.90;;;3.38;;
14876;SDS011;69691;48.172;17.070;2024-01-27T09:22:51;9.98;;;3.33;;
14876;SDS011;69691;48.172;17.070;2024-01-27T09:25:17;6.88;;;2.92;;
14876;SDS011;69691;48.172;17.070;2024-01-27T09:27:43;8.88;;;3.40;;
14876;SDS011;69691;48.172;17.070;2024-01-27T09:30:09;8.13;;;3.10;;
14876;SDS011;69691;48.172;17.070;2024-01-27T09:32:35;13.82;;;3.63;;
14876;SDS011;69691;48.172;17.070;2024-01-27T09:35:01;10.45;;;3.53;;
14876;SDS011;69691;48.172;17.070;2024-01-27T09:37:27;6.97;;;3.20;;
14876;SDS011;69691;48.172;17.070;2024-01-27T09:39:52;7.60;;;3.38;;
14876;SDS011;69691;48.172;17.070;2024-01-27T09:42:20;5.88;;;2.97;;
14876;SDS011;69691;48.172;17.070;2024-01-27T09:44:48;6.78;;;2.90;;
14876;SDS011;69691;48.172;17.070;2024-01-27T09:47:15;8.30;;;3.15;;
14876;SDS011;69691;48.172;17.070;2024-01-27T09:49:41;8.65;;;3.17;;
14876;SDS011;69691;48.172;17.070;2024-01-27T09:52:08;7.28;;;2.95;;
14876;SDS011;69691;48.172;17.070;2024-01-27T09:54:35;9.85;;;3.22;;
14876;SDS011;69691;48.172;17.070;2024-01-27T09:57:01;9.30;;;3.67;;
14876;SDS011;69691;48.172;17.070;2024-01-27T09:59:28;14.57;;;3.60;;
14876;SDS011;69691;48.172;17.070;2024-01-27T10:01:55;9.98;;;3.60;;
14876;SDS011;69691;48.172;17.070;2024-01-27T10:04:23;10.25;;;3.00;;
14876;SDS011;69691;48.172;17.070;2024-01-27T10:06:51;7.47;;;3.13;;
14876;SDS011;69691;48.172;17.070;2024-01-27T10:09:18;9.57;;;2.92;;
14876;SDS011;69691;48.172;17.070;2024-01-27T10:11:47;8.38;;;3.28;;
14876;SDS011;69691;48.172;17.070;2024-01-27T10:14:13;11.48;;;3.10;;
14876;SDS011;69691;48.172;17.070;2024-01-27T10:16:40;7.25;;;2.53;;
14876;SDS011;69691;48.172;17.070;2024-01-27T10:19:18;7.43;;;3.40;;
14876;SDS011;69691;48.172;17.070;2024-01-27T10:21:46;10.80;;;3.20;;
14876;SDS011;69691;48.172;17.070;2024-01-27T10:24:12;6.97;;;2.90;;
14876;SDS011;69691;48.172;17.070;2024-01-27T10:26:39;10.60;;;3.53;;
14876;SDS011;69691;48.172;17.070;2024-01-27T10:29:06;9.32;;;3.25;;
14876;SDS011;69691;48.172;17.070;2024-01-27T10:31:33;9.10;;;3.20;;
14876;SDS011;69691;48.172;17.070;2024-01-27T10:34:01;4.90;;;3.22;;
14876;SDS011;69691;48.172;17.070;2024-01-27T10:36:38;10.20;;;3.47;;
14876;SDS011;69691;48.172;17.070;2024-01-27T10:39:22;7.68;;;3.25;;
14876;SDS011;69691;48.172;17.070;2024-01-27T10:41:49;9.38;;;3.53;;
14876;SDS011;69691;48.172;17.070;2024-01-27T10:44:18;9.05;;;3.03;;
14876;SDS011;69691;48.172;17.070;2024-01-27T10:46:48;8.32;;;2.97;;
14876;SDS011;69691;48.172;17.070;2024-01-27T10:49:16;13.57;;;3.42;;
14876;SDS011;69691;48.172;17.070;2024-01-27T10:51:43;12.65;;;3.80;;
14876;SDS011;69691;48.172;17.070;2024-01-27T10:54:32;8.07;;;3.47;;
14876;SDS011;69691;48.172;17.070;2024-01-27T10:57:00;5.97;;;3.35;;
14876;SDS011;69691;48.172;17.070;2024-01-27T10:59:27;6.32;;;3.10;;
14876;SDS011;69691;48.172;17.070;2024-01-27T11:01:55;10.80;;;3.60;;
14876;SDS011;69691;48.172;17.070;2024-01-27T11:04:22;7.78;;;3.78;;
14876;SDS011;69691;48.172;17.070;2024-01-27T11:06:48;8.85;;;3.20;;
14876;SDS011;69691;48.172;17.070;2024-01-27T11:09:14;15.02;;;3.80;;
14876;SDS011;69691;48.172;17.070;2024-01-27T11:11:42;8.63;;;3.17;;
14876;SDS011;69691;48.172;17.070;2024-01-27T11:14:09;10.60;;;3.40;;
14876;SDS011;69691;48.172;17.070;2024-01-27T11:16:36;12.30;;;3.75;;
14876;SDS011;69691;48.172;17.070;2024-01-27T11:19:09;12.27;;;2.90;;
14876;SDS011;69691;48.172;17.070;2024-01-27T11:21:36;15.23;;;3.83;;
14876;SDS011;69691;48.172;17.070;2024-01-27T11:24:12;8.27;;;3.25;;
14876;SDS011;69691;48.172;17.070;2024-01-27T11:26:39;4.43;;;2.85;;
14876;SDS011;69691;48.172;17.070;2024-01-27T11:29:05;6.82;;;3.47;;
14876;SDS011;69691;48.172;17.070;2024-01-27T11:31:32;10.18;;;3.45;;
14876;SDS011;69691;48.172;17.070;2024-01-27T11:33:58;12.23;;;3.20;;
14876;SDS011;69691;48.172;17.070;2024-01-27T11:36:24;12.88;;;3.90;;
14876;SDS011;69691;48.172;17.070;2024-01-27T11:38:50;10.43;;;3.53;;
14876;SDS011;69691;48.172;17.070;2024-01-27T11:41:24;8.18;;;3.88;;
14876;SDS011;69691;48.172;17.070;2024-01-27T11:43:54;7.55;;;3.10;;
14876;SDS011;69691;48.172;17.070;2024-01-27T11:46:25;13.65;;;4.15;;
14876;SDS011;69691;48.172;17.070;2024-01-27T11:48:51;20.38;;;2.95;;
14876;SDS011;69691;48.172;17.070;2024-01-27T11:51:17;9.98;;;3.63;;
14876;SDS011;69691;48.172;17.070;2024-01-27T11:53:48;8.40;;;3.40;;
14876;SDS011;69691;48.172;17.070;2024-01-27T11:56:14;10.75;;;3.42;;
14876;SDS011;69691;48.172;17.070;2024-01-27T11:58:45;7.85;;;3.97;;
14876;SDS011;69691;48.172;17.070;2024-01-27T12:01:15;7.88;;;3.03;;
14876;SDS011;69691;48.172;17.070;2024-01-27T12:03:41;6.30;;;3.03;;
14876;SDS011;69691;48.172;17.070;2024-01-27T12:06:07;7.88;;;3.53;;
14876;SDS011;69691;48.172;17.070;2024-01-27T12:08:35;6.28;;;3.40;;
14876;SDS011;69691;48.172;17.070;2024-01-27T12:11:01;12.38;;;3.72;;
14876;SDS011;69691;48.172;17.070;2024-01-27T12:13:27;9.35;;;3.08;;
14876;SDS011;69691;48.172;17.070;2024-01-27T12:15:53;10.10;;;3.20;;
14876;SDS011;69691;48.172;17.070;2024-01-27T12:18:19;14.00;;;3.60;;
14876;SDS011;69691;48.172;17.070;2024-01-27T12:20:45;12.50;;;3.10;;
14876;SDS011;69691;48.172;17.070;2024-01-27T12:23:11;13.18;;;3.17;;
14876;SDS011;69691;48.172;17.070;2024-01-27T12:25:37;5.88;;;2.88;;
14876;SDS011;69691;48.172;17.070;2024-01-27T12:28:03;9.38;;;3.13;;
14876;SDS011;69691;48.172;17.070;2024-01-27T12:30:33;11.38;;;3.40;;
14876;SDS011;69691;48.172;17.070;2024-01-27T12:33:00;7.03;;;3.10;;
14876;SDS011;69691;48.172;17.070;2024-01-27T12:35:26;5.00;;;3.22;;
14876;SDS011;69691;48.172;17.070;2024-01-27T12:37:54;12.88;;;4.10;;
14876;SDS011;69691;48.172;17.070;2024-01-27T12:40:20;10.73;;;3.67;;
14876;SDS011;69691;48.172;17.070;2024-01-27T12:42:49;10.80;;;4.38;;
14876;SDS011;69691;48.172;17.070;2024-01-27T12:45:15;7.15;;;3.47;;
14876;SDS011;69691;48.172;17.070;2024-01-27T12:47:40;10.88;;;3.50;;
14876;SDS011;69691;48.172;17.070;2024-01-27T12:50:07;11.95;;;3.40;;
14876;SDS011;69691;48.172;17.070;2024-01-27T12:52:33;8.75;;;3.38;;
14876;SDS011;69691;48.172;17.070;2024-01-27T12:54:59;7.88;;;3.20;;
14876;SDS011;69691;48.172;17.070;2024-01-27T12:57:25;11.63;;;3.45;;
14876;SDS011;69691;48.172;17.070;2024-01-27T12:59:51;15.43;;;3.92;;
14876;SDS011;69691;48.172;17.070;2024-01-27T13:02:17;11.90;;;3.33;;
14876;SDS011;69691;48.172;17.070;2024-01-27T13:04:43;10.90;;;3.03;;
14876;SDS011;69691;48.172;17.070;2024-01-27T13:07:09;11.68;;;3.53;;
14876;SDS011;69691;48.172;17.070;2024-01-27T13:09:35;6.45;;;3.28;;
14876;SDS011;69691;48.172;17.070;2024-01-27T13:12:02;7.68;;;3.42;;
14876;SDS011;69691;48.172;17.070;2024-01-27T13:14:29;6.80;;;2.67;;
14876;SDS011;69691;48.172;17.070;2024-01-27T13:16:55;8.13;;;3.78;;
14876;SDS011;69691;48.172;17.070;2024-01-27T13:19:21;9.10;;;3.30;;
14876;SDS011;69691;48.172;17.070;2024-01-27T13:21:48;5.13;;;2.95;;
14876;SDS011;69691;48.172;17.070;2024-01-27T13:24:14;12.73;;;3.40;;
14876;SDS011;69691;48.172;17.070;2024-01-27T13:26:39;11.75;;;3.78;;
14876;SDS011;69691;48.172;17.070;2024-01-27T13:29:05;6.38;;;3.20;;
14876;SDS011;69691;48.172;17.070;2024-01-27T13:31:32;10.95;;;4.60;;
14876;SDS011;69691;48.172;17.070;2024-01-27T13:33:58;11.20;;;3.92;;
14876;SDS011;69691;48.172;17.070;2024-01-27T13:36:24;10.77;;;3.80;;
14876;SDS011;69691;48.172;17.070;2024-01-27T13:38:51;11.48;;;3.72;;
14876;SDS011;69691;48.172;17.070;2024-01-27T13:41:20;9.45;;;3.35;;
14876;SDS011;69691;48.172;17.070;2024-01-27T13:43:45;12.65;;;3.60;;
14876;SDS011;69691;48.172;17.070;2024-01-27T13:46:11;7.07;;;3.58;;
14876;SDS011;69691;48.172;17.070;2024-01-27T13:48:37;9.68;;;3.42;;
14876;SDS011;69691;48.172;17.070;2024-01-27T13:51:03;9.65;;;3.03;;
14876;SDS011;69691;48.172;17.070;2024-01-27T13:53:29;8.90;;;3.17;;
14876;SDS011;69691;48.172;17.070;2024-01-27T13:55:55;8.57;;;3.25;;
14876;SDS011;69691;48.172;17.070;2024-01-27T13:58:21;11.70;;;3.47;;
14876;SDS011;69691;48.172;17.070;2024-01-27T14:00:47;6.40;;;3.33;;
14876;SDS011;69691;48.172;17.070;2024-01-27T14:03:13;6.40;;;3.30;;
14876;SDS011;69691;48.172;17.070;2024-01-27T14:05:39;7.63;;;3.20;;
14876;SDS011;69691;48.172;17.070;2024-01-27T14:08:06;9.15;;;3.28;;
14876;SDS011;69691;48.172;17.070;2024-01-27T14:10:33;14.88;;;4.60;;
14876;SDS011;69691;48.172;17.070;2024-01-27T14:13:00;11.88;;;3.30;;
14876;SDS011;69691;48.172;17.070;2024-01-27T14:15:29;13.15;;;3.67;;
14876;SDS011;69691;48.172;17.070;2024-01-27T14:17:56;9.20;;;3.47;;
14876;SDS011;69691;48.172;17.070;2024-01-27T14:20:22;8.00;;;3.03;;
14876;SDS011;69691;48.172;17.070;2024-01-27T14:22:47;12.75;;;3.75;;
14876;SDS011;69691;48.172;17.070;2024-01-27T14:25:14;8.88;;;3.30;;
14876;SDS011;69691;48.172;17.070;2024-01-27T14:27:39;7.40;;;3.47;;
14876;SDS011;69691;48.172;17.070;2024-01-27T14:30:07;11.77;;;3.65;;